Time,TemperatureF,DewpointF,PressureIn,WindDirection,WindDirectionDegrees,WindSpeedMPH,WindSpeedGustMPH,Humidity,HourlyPrecipIn,Conditions,Clouds,dailyrainin,SoftwareType,DateUTC
2013-02-10 00:11:00,61.3,60.7,29.87,ENE,67,8.9,-999.0,98,-99.99,,,0.01,Acu-Link.com,2013-02-10 06:11:00,
2013-02-10 00:27:00,61.2,60.6,29.89,ESE,112,6.8,-999.0,98,-99.99,,,0.01,Acu-Link.com,2013-02-10 06:27:00,
2013-02-10 00:42:00,61.2,60.6,29.83,ENE,67,6.3,-999.0,98,-99.99,,,0.01,Acu-Link.com,2013-02-10 06:42:00,
2013-02-10 00:57:00,61.3,60.7,29.89,ENE,67,3.2,-999.0,98,-99.99,,,0.01,Acu-Link.com,2013-02-10 06:57:00,
2013-02-10 01:12:00,61.3,60.7,29.88,East,90,6.8,-999.0,98,-99.99,,,0.01,Acu-Link.com,2013-02-10 07:12:00,
2013-02-10 01:27:00,61.5,60.9,29.86,ESE,112,2.7,-999.0,98,-99.99,,,0.01,Acu-Link.com,2013-02-10 07:27:00,
2013-02-10 01:42:00,61.7,61.1,29.87,ESE,112,5.3,-999.0,98,-99.99,,,0.01,Acu-Link.com,2013-02-10 07:42:00,
2013-02-10 01:57:00,61.9,61.3,29.86,East,90,4.2,-999.0,98,-99.99,,,0.01,Acu-Link.com,2013-02-10 07:57:00,
2013-02-10 02:12:00,62.1,61.5,29.83,ESE,112,3.7,-999.0,98,-99.99,,,0.01,Acu-Link.com,2013-02-10 08:12:00,
2013-02-10 02:27:00,62.2,61.6,29.82,NNE,22,3.7,-999.0,98,-99.99,,,0.01,Acu-Link.com,2013-02-10 08:27:00,
2013-02-10 02:43:00,62.4,61.8,29.84,ENE,67,4.2,-999.0,98,-99.99,,,0.01,Acu-Link.com,2013-02-10 08:43:00,
2013-02-10 02:58:00,62.6,62.0,29.82,East,90,7.3,-999.0,98,-99.99,,,0.01,Acu-Link.com,2013-02-10 08:58:00,
2013-02-10 03:19:00,62.6,62.0,29.83,East,90,4.2,-999.0,98,-99.99,,,0.01,Acu-Link.com,2013-02-10 09:19:00,
2013-02-10 03:34:00,63.3,62.7,29.81,ESE,112,1.1,-999.0,98,-99.99,,,0.01,Acu-Link.com,2013-02-10 09:34:00,
2013-02-10 03:50:00,63.5,62.9,29.80,ESE,112,3.7,-999.0,98,-99.99,,,0.01,Acu-Link.com,2013-02-10 09:50:00,
2013-02-10 04:05:00,63.9,63.3,29.82,ESE,112,5.8,-999.0,98,-99.99,,,0.01,Acu-Link.com,2013-02-10 10:05:00,
2013-02-10 04:20:00,64.0,63.4,29.83,East,90,5.3,-999.0,98,-99.99,,,0.01,Acu-Link.com,2013-02-10 10:20:00,
2013-02-10 04:35:00,64.2,63.6,29.79,ESE,112,4.7,-999.0,98,-99.99,,,0.01,Acu-Link.com,2013-02-10 10:35:00,
2013-02-10 04:50:00,64.4,63.8,29.81,ESE,112,5.8,-999.0,98,-99.99,,,0.01,Acu-Link.com,2013-02-10 10:50:00,
2013-02-10 05:05:00,64.6,64.0,29.81,ESE,112,3.7,-999.0,98,-99.99,,,0.01,Acu-Link.com,2013-02-10 11:05:00,
2013-02-10 05:20:00,65.3,64.7,29.77,ESE,112,4.2,-999.0,98,-99.99,,,0.01,Acu-Link.com,2013-02-10 11:20:00,
2013-02-10 05:36:00,65.7,65.1,29.78,ESE,112,3.7,-999.0,98,-99.99,,,0.01,Acu-Link.com,2013-02-10 11:36:00,
2013-02-10 05:51:00,65.8,65.2,29.79,ESE,112,3.7,-999.0,98,-99.99,,,0.01,Acu-Link.com,2013-02-10 11:51:00,
2013-02-10 06:06:00,66.0,65.4,29.78,ESE,112,4.2,-999.0,98,-99.99,,,0.01,Acu-Link.com,2013-02-10 12:06:00,
2013-02-10 06:21:00,66.2,65.6,29.81,ESE,112,3.7,-999.0,98,-99.99,,,0.01,Acu-Link.com,2013-02-10 12:21:00,
2013-02-10 06:36:00,66.6,66.0,29.80,East,90,6.8,-999.0,98,-99.99,,,0.01,Acu-Link.com,2013-02-10 12:36:00,
2013-02-10 06:51:00,66.6,66.0,29.80,East,90,4.7,-999.0,98,-99.99,,,0.01,Acu-Link.com,2013-02-10 12:51:00,
2013-02-10 07:06:00,66.7,66.1,29.79,SE,135,2.7,-999.0,98,-99.99,,,0.01,Acu-Link.com,2013-02-10 13:06:00,
2013-02-10 07:21:00,66.9,66.3,29.79,SSE,157,4.2,-999.0,98,-99.99,,,0.01,Acu-Link.com,2013-02-10 13:21:00,
2013-02-10 07:36:00,67.3,66.7,29.83,ESE,112,6.8,-999.0,98,-99.99,,,0.01,Acu-Link.com,2013-02-10 13:36:00,
2013-02-10 07:52:00,67.3,66.7,29.80,WSW,247,2.2,-999.0,98,-99.99,,,0.01,Acu-Link.com,2013-02-10 13:52:00,
2013-02-10 08:07:00,67.6,67.0,29.82,ESE,112,4.2,-999.0,98,-99.99,,,0.01,Acu-Link.com,2013-02-10 14:07:00,
2013-02-10 08:22:00,68.0,67.4,29.82,South,180,4.7,-999.0,98,-99.99,,,0.01,Acu-Link.com,2013-02-10 14:22:00,
2013-02-10 08:37:00,68.5,67.9,29.79,East,90,4.2,-999.0,98,-99.99,,,0.01,Acu-Link.com,2013-02-10 14:37:00,
2013-02-10 08:52:00,69.1,68.5,29.78,ESE,112,4.7,-999.0,98,-99.99,,,0.01,Acu-Link.com,2013-02-10 14:52:00,
2013-02-10 09:07:00,70.3,69.7,29.77,ESE,112,5.8,-999.0,98,-99.99,,,0.01,Acu-Link.com,2013-02-10 15:07:00,
2013-02-10 09:23:00,71.4,70.8,29.81,SE,135,4.2,-999.0,98,-99.99,,,0.01,Acu-Link.com,2013-02-10 15:23:00,
2013-02-10 09:38:00,72.3,71.7,29.80,South,180,6.3,-999.0,98,-99.99,,,0.01,Acu-Link.com,2013-02-10 15:38:00,
2013-02-10 09:53:00,73.4,72.8,29.80,SSE,157,6.3,-999.0,98,-99.99,,,0.01,Acu-Link.com,2013-02-10 15:53:00,
2013-02-10 10:08:00,73.8,73.2,29.76,ESE,112,7.8,-999.0,98,-99.99,,,0.01,Acu-Link.com,2013-02-10 16:08:00,
2013-02-10 10:23:00,73.8,73.2,29.80,SW,225,5.3,-999.0,98,-99.99,,,0.01,Acu-Link.com,2013-02-10 16:23:00,
2013-02-10 10:38:00,74.7,74.1,29.80,ENE,67,2.2,-999.0,98,-99.99,,,0.01,Acu-Link.com,2013-02-10 16:38:00,
2013-02-10 10:53:00,74.7,74.1,29.79,South,180,4.7,-999.0,98,-99.99,,,0.01,Acu-Link.com,2013-02-10 16:53:00,
2013-02-10 11:08:00,75.4,74.8,29.79,SSW,202,4.2,-999.0,98,-99.99,,,0.01,Acu-Link.com,2013-02-10 17:08:00,
2013-02-10 11:23:00,75.6,74.4,29.78,NNW,337,6.3,-999.0,96,-99.99,,,0.01,Acu-Link.com,2013-02-10 17:23:00,
2013-02-10 11:39:00,75.0,74.1,29.79,SSW,202,9.4,-999.0,97,-99.99,,,0.01,Acu-Link.com,2013-02-10 17:39:00,
2013-02-10 11:54:00,74.5,73.9,29.78,South,180,4.7,-999.0,98,-99.99,,,0.01,Acu-Link.com,2013-02-10 17:54:00,
2013-02-10 12:09:00,74.8,74.2,29.79,SSW,202,4.7,-999.0,98,-99.99,,,0.01,Acu-Link.com,2013-02-10 18:09:00,
2013-02-10 12:24:00,75.4,74.8,29.78,South,180,6.3,-999.0,98,-99.99,,,0.01,Acu-Link.com,2013-02-10 18:24:00,
2013-02-10 12:39:00,75.9,74.7,29.75,SE,135,4.2,-999.0,96,-99.99,,,0.01,Acu-Link.com,2013-02-10 18:39:00,
2013-02-10 12:54:00,75.7,74.5,29.73,SE,135,5.3,-999.0,96,-99.99,,,0.01,Acu-Link.com,2013-02-10 18:54:00,
2013-02-10 13:09:00,75.2,74.6,29.75,ESE,112,4.7,-999.0,98,-99.99,,,0.01,Acu-Link.com,2013-02-10 19:09:00,
2013-02-10 13:24:00,75.2,74.6,29.71,SW,225,13.0,-999.0,98,-99.99,,,0.02,Acu-Link.com,2013-02-10 19:24:00,
2013-02-10 13:39:00,76.3,75.7,29.70,SW,225,5.8,-999.0,98,-99.99,,,0.02,Acu-Link.com,2013-02-10 19:39:00,
2013-02-10 13:55:00,76.5,75.3,29.73,SW,225,13.0,-999.0,96,-99.99,,,0.02,Acu-Link.com,2013-02-10 19:55:00,
2013-02-10 14:10:00,76.8,75.3,29.70,SW,225,8.9,-999.0,95,-99.99,,,0.02,Acu-Link.com,2013-02-10 20:10:00,
2013-02-10 14:25:00,75.9,75.0,29.70,SSE,157,6.8,-999.0,97,-99.99,,,0.02,Acu-Link.com,2013-02-10 20:25:00,
2013-02-10 14:40:00,77.0,75.5,29.73,SSE,157,4.7,-999.0,95,-99.99,,,0.02,Acu-Link.com,2013-02-10 20:40:00,
2013-02-10 14:55:00,77.4,75.5,29.73,SSE,157,7.3,-999.0,94,-99.99,,,0.02,Acu-Link.com,2013-02-10 20:55:00,
2013-02-10 15:10:00,77.2,75.3,29.69,ESE,112,8.9,-999.0,94,-99.99,,,0.02,Acu-Link.com,2013-02-10 21:10:00,
2013-02-10 15:25:00,77.0,75.5,29.69,ESE,112,5.8,-999.0,95,-99.99,,,0.02,Acu-Link.com,2013-02-10 21:25:00,
2013-02-10 15:40:00,76.5,75.0,29.73,East,90,7.3,-999.0,95,-99.99,,,0.02,Acu-Link.com,2013-02-10 21:40:00,
2013-02-10 15:55:00,76.3,75.1,29.74,West,270,7.3,-999.0,96,-99.99,,,0.02,Acu-Link.com,2013-02-10 21:55:00,
2013-02-10 16:11:00,77.5,75.3,29.73,South,180,6.3,-999.0,93,-99.99,,,0.02,Acu-Link.com,2013-02-10 22:11:00,
2013-02-10 16:26:00,77.0,74.8,29.74,SSE,157,9.9,-999.0,93,-99.99,,,0.02,Acu-Link.com,2013-02-10 22:26:00,
2013-02-10 16:41:00,76.3,75.1,29.74,SSE,157,7.3,-999.0,96,-99.99,,,0.02,Acu-Link.com,2013-02-10 22:41:00,
2013-02-10 16:56:00,76.1,74.9,29.74,SW,225,6.8,-999.0,96,-99.99,,,0.02,Acu-Link.com,2013-02-10 22:56:00,
2013-02-10 17:11:00,75.9,74.7,29.75,South,180,8.3,-999.0,96,-99.99,,,0.02,Acu-Link.com,2013-02-10 23:11:00,
2013-02-10 17:26:00,75.4,74.5,29.75,South,180,7.3,-999.0,97,-99.99,,,0.02,Acu-Link.com,2013-02-10 23:26:00,
2013-02-10 17:41:00,75.0,74.4,29.76,ESE,112,5.3,-999.0,98,-99.99,,,0.02,Acu-Link.com,2013-02-10 23:41:00,
2013-02-10 17:56:00,74.8,74.2,29.77,SSW,202,6.3,-999.0,98,-99.99,,,0.02,Acu-Link.com,2013-02-10 23:56:00,
2013-02-10 18:11:00,74.5,73.9,29.74,ESE,112,4.7,-999.0,98,-99.99,,,0.02,Acu-Link.com,2013-02-11 00:11:00,
2013-02-10 18:27:00,74.3,73.7,29.77,South,180,4.7,-999.0,98,-99.99,,,0.02,Acu-Link.com,2013-02-11 00:27:00,
2013-02-10 18:42:00,74.3,73.7,29.75,SSW,202,9.9,-999.0,98,-99.99,,,0.02,Acu-Link.com,2013-02-11 00:42:00,
2013-02-10 18:57:00,74.1,73.5,29.74,South,180,8.3,-999.0,98,-99.99,,,0.02,Acu-Link.com,2013-02-11 00:57:00,
2013-02-10 19:12:00,73.9,73.3,29.75,SSE,157,5.3,-999.0,98,-99.99,,,0.02,Acu-Link.com,2013-02-11 01:12:00,
2013-02-10 19:27:00,73.8,73.2,29.76,South,180,7.3,-999.0,98,-99.99,,,0.02,Acu-Link.com,2013-02-11 01:27:00,
2013-02-10 19:42:00,73.8,73.2,29.79,East,90,5.3,-999.0,98,-99.99,,,0.02,Acu-Link.com,2013-02-11 01:42:00,
2013-02-10 19:57:00,73.6,73.0,29.77,South,180,5.3,-999.0,98,-99.99,,,0.02,Acu-Link.com,2013-02-11 01:57:00,
2013-02-10 20:12:00,73.4,72.8,29.77,West,270,5.8,-999.0,98,-99.99,,,0.02,Acu-Link.com,2013-02-11 02:12:00,
2013-02-10 20:27:00,73.2,72.6,29.79,SSE,157,4.7,-999.0,98,-99.99,,,0.02,Acu-Link.com,2013-02-11 02:27:00,
2013-02-10 20:43:00,73.0,72.4,29.78,SSE,157,4.2,-999.0,98,-99.99,,,0.02,Acu-Link.com,2013-02-11 02:43:00,
2013-02-10 20:58:00,73.0,72.4,29.77,SSE,157,6.3,-999.0,98,-99.99,,,0.02,Acu-Link.com,2013-02-11 02:58:00,
2013-02-10 21:13:00,72.9,72.3,29.81,ESE,112,2.7,-999.0,98,-99.99,,,0.02,Acu-Link.com,2013-02-11 03:13:00,
2013-02-10 21:28:00,72.5,71.9,29.83,SSE,157,2.7,-999.0,98,-99.99,,,0.02,Acu-Link.com,2013-02-11 03:28:00,
2013-02-10 21:43:00,72.5,71.9,29.82,South,180,4.2,-999.0,98,-99.99,,,0.02,Acu-Link.com,2013-02-11 03:43:00,
2013-02-10 21:58:00,72.5,71.9,29.83,SSE,157,3.2,-999.0,98,-99.99,,,0.02,Acu-Link.com,2013-02-11 03:58:00,
2013-02-10 22:13:00,72.5,71.9,29.84,WSW,247,2.7,-999.0,98,-99.99,,,0.02,Acu-Link.com,2013-02-11 04:13:00,
2013-02-10 22:28:00,72.5,71.9,29.81,SW,225,6.3,-999.0,98,-99.99,,,0.02,Acu-Link.com,2013-02-11 04:28:00,
2013-02-10 22:43:00,72.3,71.7,29.85,SW,225,3.2,-999.0,98,-99.99,,,0.02,Acu-Link.com,2013-02-11 04:43:00,
2013-02-10 22:59:00,72.3,71.7,29.84,SSW,202,3.2,-999.0,98,-99.99,,,0.02,Acu-Link.com,2013-02-11 04:59:00,
2013-02-10 23:14:00,72.0,71.4,29.82,SW,225,5.3,-999.0,98,-99.99,,,0.02,Acu-Link.com,2013-02-11 05:14:00,
2013-02-10 23:29:00,71.8,71.2,29.81,SE,135,3.7,-999.0,98,-99.99,,,0.02,Acu-Link.com,2013-02-11 05:29:00,
2013-02-10 23:44:00,71.8,71.2,29.85,SW,225,2.7,-999.0,98,-99.99,,,0.02,Acu-Link.com,2013-02-11 05:44:00,
2013-02-10 23:59:00,71.6,71.0,29.81,SSE,157,2.2,-999.0,98,-99.99,,,0.02,Acu-Link.com,2013-02-11 05:59:00,